メインページ
METAR-TAF:

METAR-TAF

空港 :

バンクーバー国際空港

バンクーバー, ブリティッシュコロンビア州, カナダ

緯度: 49-11N, 経度: 123-10W, 海抜: 3m

現時点の気象観測

当レポートは44分前の09:00(UTC)に作成
の風 5kt
気温 14°C
湿度 77%
気圧 1023 hPa
視程: 48.3km
晴天

METAR: CYVR 260900Z 10005KT 30SM SKC 14/10 A3022 RMK SLP234

時間: 02:44 (09:44 UTC)

予報

当レポートは1時間6分前の08:38(UTC)に作成
予報は26日の 09時(UTC)から 27日の 12時(UTC)まで有効
の風 5kt
視程: 10km
晴天
26日の 1100時(UTC)から
の風 6kt
視程: 10km
高度2000ftの雲は散在している
26日の 11時(UTC)から 26日の 17時(UTC)まで一時的に
高度2000ftの千切れ雲あり
26日の 15時(UTC)から 26日の 17時(UTC)まで徐々に
西の風 12kt
26日の 1700時(UTC)から
西の風 12kt
視程: 10km
高度2000ftの雲は散在している
27日の 04時(UTC)から 27日の 06時(UTC)まで徐々に
北西の風 8kt

TAF: CYVR 260838Z 2609/2712 09005KT P6SM SKC FM261100 09006KT P6SM SCT020 TEMPO 2611/2617 BKN020 BECMG 2615/2617 28012KT FM261700 28012KT P6SM SCT020 BECMG 2704/2706 32008KT RMK NXT FCST BY 261200Z

4,000以上の空港の気象観測と天気予報(METAR報とTAF報)

利用可能な観測所は地図上に黄色い丸と赤い丸で示す。

丸の上にカーソルを重ねると観測所名を参照できる。

次にクリックすると気象観測と天気予報を参照できる。

マップの切り替え:黒色「×」印の緑ボタンをクリックして拡大、「-」印の緑ボタンをクリックして縮小、緑色の三角印をクリックして隣りの地図に切り替え


METAR-TAF: